createdAt,value
2022-09-04T00:02:27.471Z,95367.91
2022-09-04T00:05:04.069Z,95366.75
2022-09-04T00:07:38.432Z,95370.72
2022-09-04T00:10:43.510Z,95378.34
2022-09-04T00:13:21.737Z,95385.00
2022-09-04T00:16:09.763Z,95381.59
2022-09-04T00:18:56.557Z,95379.47
2022-09-04T00:21:29.679Z,95385.28
2022-09-04T00:24:08.788Z,95394.72
2022-09-04T00:26:54.463Z,95390.19
2022-09-04T00:29:45.075Z,95387.81
2022-09-04T00:32:30.424Z,95393.38
2022-09-04T00:35:03.099Z,95372.25
2022-09-04T00:37:35.350Z,95353.38
2022-09-04T00:40:26.979Z,95391.66
2022-09-04T00:43:16.484Z,95393.50
2022-09-04T00:46:08.576Z,95386.19
2022-09-04T00:49:02.581Z,95389.13
2022-09-04T00:51:37.624Z,95385.13
2022-09-04T00:54:16.586Z,95395.13
2022-09-04T00:56:59.002Z,95385.84
2022-09-04T00:59:34.856Z,95378.16
2022-09-04T01:02:14.799Z,95379.28
2022-09-04T01:04:53.222Z,95382.00
2022-09-04T01:07:35.575Z,95378.38
2022-09-04T01:10:23.617Z,95377.91
2022-09-04T01:13:12.990Z,95371.34
2022-09-04T01:15:55.795Z,95367.13
2022-09-04T01:18:32.538Z,95379.50
2022-09-04T01:21:30.981Z,95374.06
2022-09-04T01:24:20.359Z,95372.94
2022-09-04T01:26:56.308Z,95377.69
2022-09-04T01:29:36.058Z,95382.25
2022-09-04T01:32:19.440Z,95374.25
2022-09-04T01:35:15.966Z,95384.34
2022-09-04T01:37:51.672Z,95389.09
2022-09-04T01:40:34.135Z,95379.00
2022-09-04T01:43:07.559Z,95375.34
2022-09-04T01:45:43.187Z,95371.22
2022-09-04T01:48:16.348Z,95368.69
2022-09-04T01:50:49.113Z,95371.59
2022-09-04T01:53:24.956Z,95370.44
2022-09-04T01:56:17.854Z,95372.25
2022-09-04T01:58:53.596Z,95367.69
2022-09-04T02:01:47.409Z,95367.47
2022-09-04T02:04:39.900Z,95366.13
2022-09-04T02:07:24.960Z,95376.19
2022-09-04T02:10:08.280Z,95373.13
2022-09-04T02:12:53.498Z,95375.97
2022-09-04T02:15:22.886Z,95367.69
2022-09-04T02:18:11.697Z,95368.94
2022-09-04T02:20:45.536Z,95368.16
2022-09-04T02:23:28.337Z,95357.47
2022-09-04T02:26:02.039Z,95370.28
2022-09-04T02:29:04.082Z,95377.16
2022-09-04T02:31:30.931Z,95364.56
2022-09-04T02:34:00.735Z,95357.75
2022-09-04T02:36:42.713Z,95354.13
2022-09-04T02:39:12.152Z,95348.94
2022-09-04T02:41:51.065Z,95337.34
2022-09-04T02:44:36.499Z,95348.78
2022-09-04T02:47:12.542Z,95338.38
2022-09-04T02:50:08.632Z,95339.50
2022-09-04T02:52:47.536Z,95339.16
2022-09-04T02:55:30.552Z,95347.31
2022-09-04T02:58:39.803Z,95354.13
2022-09-04T03:01:31.392Z,95349.13
2022-09-04T03:04:15.619Z,95351.97
2022-09-04T03:07:13.421Z,95348.34
2022-09-04T03:09:47.147Z,95357.16
2022-09-04T03:12:39.423Z,95370.78
2022-09-04T03:15:14.872Z,95380.47
2022-09-04T03:17:55.407Z,95386.56
2022-09-04T03:20:31.558Z,95377.16
2022-09-04T03:23:20.517Z,95385.09
2022-09-04T03:26:02.276Z,95378.22
2022-09-04T03:28:38.135Z,95387.75
2022-09-04T03:31:22.058Z,95382.78
2022-09-04T03:33:57.495Z,95372.66
2022-09-04T03:36:32.192Z,95374.66
2022-09-04T03:39:28.308Z,95370.34
2022-09-04T03:42:19.848Z,95350.81
2022-09-04T03:44:57.149Z,95367.78
2022-09-04T03:47:39.956Z,95371.22
2022-09-04T03:50:30.357Z,95373.84
2022-09-04T03:53:20.232Z,95383.09
2022-09-04T03:56:02.237Z,95388.31
2022-09-04T03:59:05.778Z,95389.03
2022-09-04T04:01:35.076Z,95410.19
2022-09-04T04:04:36.158Z,95401.63
2022-09-04T04:07:11.839Z,95412.00
2022-09-04T04:09:47.688Z,95414.69
2022-09-04T04:12:28.133Z,95414.72
2022-09-04T04:15:03.572Z,95429.78
2022-09-04T04:17:56.407Z,95431.63
2022-09-04T04:20:44.694Z,95449.13
2022-09-04T04:23:56.943Z,95444.94
2022-09-04T04:26:45.257Z,95451.69
2022-09-04T04:29:20.871Z,95456.47
2022-09-04T04:32:13.805Z,95462.72
2022-09-04T04:34:49.517Z,95456.03
2022-09-04T04:37:31.650Z,95464.78
2022-09-04T04:40:20.346Z,95473.91
2022-09-04T04:42:50.146Z,95482.88
2022-09-04T04:45:38.277Z,95490.81
2022-09-04T04:48:36.342Z,95458.31
2022-09-04T04:51:08.690Z,95487.66
2022-09-04T04:53:57.395Z,95475.38
2022-09-04T04:56:35.121Z,95472.75
2022-09-04T04:59:23.569Z,95481.38
2022-09-04T05:02:04.784Z,95484.31
2022-09-04T05:04:53.259Z,95486.44
2022-09-04T05:07:34.672Z,95478.81
2022-09-04T05:10:13.185Z,95476.59
2022-09-04T05:13:24.747Z,95486.78
2022-09-04T05:16:18.044Z,95472.38
2022-09-04T05:18:58.218Z,95456.75
2022-09-04T05:21:49.232Z,95472.09
2022-09-04T05:24:18.983Z,95466.38
2022-09-04T05:26:58.567Z,95468.59
2022-09-04T05:29:51.692Z,95482.91
2022-09-04T05:32:23.577Z,95483.22
2022-09-04T05:35:14.658Z,95489.19
2022-09-04T05:37:53.626Z,95495.38
2022-09-04T05:40:38.810Z,95484.97
2022-09-04T05:43:31.712Z,95491.97
2022-09-04T05:46:17.512Z,95484.13
2022-09-04T05:49:17.079Z,95493.91
2022-09-04T05:52:08.820Z,95503.09
2022-09-04T05:54:38.534Z,95504.81
2022-09-04T05:57:42.607Z,95497.97
2022-09-04T06:00:18.853Z,95498.84
2022-09-04T06:03:18.182Z,95491.56
2022-09-04T06:05:58.499Z,95490.38
2022-09-04T06:08:43.405Z,95478.06
2022-09-04T06:15:50.928Z,95451.97
2022-09-04T06:18:46.904Z,95423.63
2022-09-04T06:21:36.466Z,95465.34
2022-09-04T06:24:03.373Z,95473.34
2022-09-04T06:27:06.767Z,95476.44
2022-09-04T06:29:41.667Z,95466.19
2022-09-04T06:32:14.342Z,95460.78
2022-09-04T06:34:58.915Z,95463.28
2022-09-04T06:37:35.375Z,95468.06
2022-09-04T06:40:21.296Z,95461.00
2022-09-04T06:43:08.270Z,95462.16
2022-09-04T06:45:43.857Z,95473.06
2022-09-04T06:48:22.201Z,95470.50
2022-09-04T06:50:59.953Z,95468.91
2022-09-04T06:53:48.357Z,95468.69
2022-09-04T06:56:32.577Z,95474.63
2022-09-04T06:59:34.803Z,95483.97
2022-09-04T07:02:01.729Z,95476.69
2022-09-04T07:04:48.267Z,95468.59
2022-09-04T07:07:30.936Z,95481.00
2022-09-04T07:10:23.181Z,95468.66
2022-09-04T07:13:02.117Z,95478.75
2022-09-04T07:15:46.383Z,95481.13
2022-09-04T07:18:32.056Z,95485.63
2022-09-04T07:21:17.270Z,95476.16
2022-09-04T07:24:05.207Z,95477.47
2022-09-04T07:26:39.807Z,95479.06
2022-09-04T07:29:30.991Z,95485.91
2022-09-04T07:32:08.359Z,95476.91
2022-09-04T07:34:35.457Z,95473.75
2022-09-04T07:37:12.747Z,95476.41
2022-09-04T07:40:13.916Z,95475.56
2022-09-04T07:43:09.200Z,95482.97
2022-09-04T07:45:51.445Z,95492.19
2022-09-04T07:48:19.492Z,95494.88
2022-09-04T07:51:05.039Z,95503.84
2022-09-04T07:53:47.130Z,95493.28
2022-09-04T07:56:19.743Z,95496.44
2022-09-04T08:02:03.628Z,95496.41
2022-09-04T08:04:58.663Z,95503.16
2022-09-04T08:07:34.757Z,95498.63
2022-09-04T08:10:33.812Z,95502.06
2022-09-04T08:13:33.570Z,95494.16
2022-09-04T08:16:07.995Z,95503.03
2022-09-04T08:18:58.470Z,95513.78
2022-09-04T08:21:39.352Z,95506.13
2022-09-04T08:24:34.150Z,95507.09
2022-09-04T08:27:27.274Z,95504.63
2022-09-04T08:30:10.873Z,95507.25
2022-09-04T08:33:05.170Z,95504.38
2022-09-04T08:35:42.894Z,95510.13
2022-09-04T08:38:46.929Z,95506.38
2022-09-04T08:41:35.639Z,95498.69
2022-09-04T08:44:05.311Z,95502.78
2022-09-04T08:46:54.450Z,95503.59
2022-09-04T08:49:52.147Z,95498.91
2022-09-04T08:52:50.804Z,95497.28
2022-09-04T08:55:32.472Z,95495.13
2022-09-04T08:58:22.581Z,95496.16
2022-09-04T09:01:10.875Z,95492.66
2022-09-04T09:03:49.489Z,95487.94
2022-09-04T09:06:24.980Z,95490.06
2022-09-04T09:09:00.749Z,95481.91
2022-09-04T09:11:59.616Z,95479.38
2022-09-04T09:15:03.733Z,95472.50
2022-09-04T09:17:38.847Z,95484.09
2022-09-04T09:20:18.068Z,95493.53
2022-09-04T09:23:18.161Z,95492.00
2022-09-04T09:25:51.502Z,95494.63
2022-09-04T09:28:18.235Z,95497.81
2022-09-04T09:31:22.883Z,95495.25
2022-09-04T09:34:11.529Z,95498.25
2022-09-04T09:36:46.072Z,95483.56
2022-09-04T09:39:30.536Z,95477.22
2022-09-04T09:41:59.553Z,95474.84
2022-09-04T09:44:54.216Z,95474.06
2022-09-04T09:47:51.264Z,95473.22
2022-09-04T09:50:28.988Z,95470.19
2022-09-04T09:53:10.960Z,95469.72
2022-09-04T09:56:21.542Z,95466.97
2022-09-04T09:59:19.023Z,95468.91
2022-09-04T10:02:10.441Z,95460.00
2022-09-04T10:05:27.223Z,95457.09
2022-09-04T10:08:12.994Z,95448.00
2022-09-04T10:11:01.188Z,95451.13
2022-09-04T10:13:53.891Z,95461.50
2022-09-04T10:16:23.475Z,95467.78
2022-09-04T10:18:57.177Z,95467.28
2022-09-04T10:22:01.746Z,95469.16
2022-09-04T10:24:37.251Z,95450.78
2022-09-04T10:27:39.500Z,95438.69
2022-09-04T10:30:22.258Z,95437.28
2022-09-04T10:33:07.967Z,95443.59
2022-09-04T10:36:33.176Z,95442.00
2022-09-04T10:39:41.097Z,95438.81
2022-09-04T10:42:45.385Z,95436.34
2022-09-04T10:45:39.019Z,95439.50
2022-09-04T10:48:36.938Z,95442.28
2022-09-04T10:51:34.690Z,95435.25
2022-09-04T10:54:11.186Z,95429.53
2022-09-04T10:56:56.647Z,95425.88
2022-09-04T10:59:32.523Z,95425.78
2022-09-04T11:02:35.887Z,95436.94
2022-09-04T11:05:02.814Z,95431.41
2022-09-04T11:07:49.289Z,95431.50
2022-09-04T11:10:18.955Z,95421.25
2022-09-04T11:13:27.316Z,95417.13
2022-09-04T11:16:23.600Z,95420.41
2022-09-04T11:19:12.149Z,95428.13
2022-09-04T11:21:44.746Z,95421.03
2022-09-04T11:24:52.863Z,95409.88
2022-09-04T11:27:39.140Z,95409.34
2022-09-04T11:30:21.675Z,95408.25
2022-09-04T11:33:25.741Z,95400.81
2022-09-04T11:36:01.969Z,95399.91
2022-09-04T11:38:53.744Z,95407.47
2022-09-04T11:41:24.616Z,95398.59
2022-09-04T11:44:17.324Z,95391.47
2022-09-04T11:47:09.002Z,95387.78
2022-09-04T11:50:11.210Z,95388.25
2022-09-04T11:53:01.146Z,95384.88
2022-09-04T11:55:40.747Z,95380.44
2022-09-04T11:58:41.576Z,95393.34
2022-09-04T12:01:27.074Z,95386.13
2022-09-04T12:04:18.354Z,95382.91
2022-09-04T12:07:17.302Z,95384.41
2022-09-04T12:10:21.105Z,95379.00
2022-09-04T12:13:25.834Z,95367.66
2022-09-04T12:15:54.527Z,95315.63
2022-09-04T12:18:31.372Z,95356.72
2022-09-04T12:21:22.579Z,95358.84
2022-09-04T12:24:05.087Z,95351.81
2022-09-04T12:26:51.208Z,95348.47
2022-09-04T12:29:30.765Z,95352.69
2022-09-04T12:32:13.404Z,95350.94
2022-09-04T12:34:41.109Z,95344.84
2022-09-04T12:37:30.108Z,95350.09
2022-09-04T12:40:13.060Z,95355.44
2022-09-04T12:42:49.759Z,95360.91
2022-09-04T12:45:52.648Z,95355.34
2022-09-04T12:48:51.880Z,95349.97
2022-09-04T12:51:28.846Z,95349.28
2022-09-04T12:54:09.210Z,95357.09
2022-09-04T12:56:50.964Z,95350.31
2022-09-04T12:59:30.654Z,95350.41
2022-09-04T13:01:57.536Z,95363.28
2022-09-04T13:04:29.618Z,95350.09
2022-09-04T13:06:57.031Z,95364.22
2022-09-04T13:09:53.125Z,95354.75
2022-09-04T13:12:29.850Z,95352.22
2022-09-04T13:15:20.321Z,95345.78
2022-09-04T13:18:02.552Z,95351.19
2022-09-04T13:20:50.801Z,95352.19
2022-09-04T13:23:37.706Z,95350.50
2022-09-04T13:26:35.411Z,95345.78
2022-09-04T13:29:19.528Z,95344.66
2022-09-04T13:31:51.417Z,95346.66
2022-09-04T13:34:28.399Z,95352.69
2022-09-04T13:37:21.244Z,95353.31
2022-09-04T13:40:12.511Z,95361.56
2022-09-04T13:43:07.230Z,95365.31
2022-09-04T13:45:43.389Z,95351.47
2022-09-04T13:48:40.257Z,95355.34
2022-09-04T13:51:23.180Z,95324.19
2022-09-04T13:54:42.563Z,95345.03
2022-09-04T13:57:26.544Z,95350.94
2022-09-04T13:59:55.734Z,95353.78
2022-09-04T14:02:28.071Z,95347.88
2022-09-04T14:05:02.491Z,95346.63
2022-09-04T14:07:35.614Z,95347.25
2022-09-04T14:10:11.574Z,95338.41
2022-09-04T14:13:02.792Z,95352.34
2022-09-04T14:16:04.117Z,95348.16
2022-09-04T14:19:01.080Z,95361.06
2022-09-04T14:21:55.580Z,95356.25
2022-09-04T14:24:56.377Z,95375.59
2022-09-04T14:27:39.052Z,95365.38
2022-09-04T14:30:10.871Z,95368.31
2022-09-04T14:33:19.024Z,95376.59
2022-09-04T14:36:00.443Z,95377.44
2022-09-04T14:38:35.252Z,95373.28
2022-09-04T14:41:05.792Z,95367.91
2022-09-04T14:43:59.252Z,95373.53
2022-09-04T14:47:07.376Z,95378.69
2022-09-04T14:49:47.011Z,95371.00
2022-09-04T14:52:22.662Z,95375.78
2022-09-04T14:54:57.672Z,95374.78
2022-09-04T14:57:44.265Z,95370.66
2022-09-04T15:00:20.745Z,95371.06
2022-09-04T15:03:20.550Z,95377.47
2022-09-04T15:05:58.700Z,95363.69
2022-09-04T15:08:45.422Z,95362.88
2022-09-04T15:11:31.557Z,95372.22
2022-09-04T15:14:24.412Z,95377.28
2022-09-04T15:16:55.830Z,95378.69
2022-09-04T15:19:35.979Z,95389.50
2022-09-04T15:22:10.069Z,95393.13
2022-09-04T15:24:49.880Z,95390.81
2022-09-04T15:27:42.806Z,95395.53
2022-09-04T15:30:22.405Z,95393.63
2022-09-04T15:33:02.683Z,95387.34
2022-09-04T15:35:33.911Z,95386.44
2022-09-04T15:38:20.667Z,95390.09
2022-09-04T15:41:16.185Z,95389.63
2022-09-04T15:43:47.594Z,95391.94
2022-09-04T15:46:43.213Z,95386.63
2022-09-04T15:49:17.160Z,95384.91
2022-09-04T15:52:03.359Z,95377.78
2022-09-04T15:54:51.255Z,95380.44
2022-09-04T15:57:51.140Z,95384.16
2022-09-04T16:00:24.295Z,95392.25
2022-09-04T16:03:02.139Z,95386.84
2022-09-04T16:05:47.605Z,95373.88
2022-09-04T16:08:41.221Z,95372.41
2022-09-04T16:11:46.969Z,95383.03
2022-09-04T16:14:36.868Z,95373.75
2022-09-04T16:17:20.194Z,95372.66
2022-09-04T16:19:54.009Z,95384.31
2022-09-04T16:22:46.546Z,95373.34
2022-09-04T16:25:29.717Z,95381.84
2022-09-04T16:28:12.555Z,95375.72
2022-09-04T16:30:48.186Z,95368.41
2022-09-04T16:33:28.198Z,95379.09
2022-09-04T16:36:05.730Z,95374.94
2022-09-04T16:38:47.497Z,95386.34
2022-09-04T16:41:37.655Z,95395.59
2022-09-04T16:44:26.051Z,95405.72
2022-09-04T16:47:02.768Z,95401.56
2022-09-04T16:49:56.124Z,95410.50
2022-09-04T16:52:35.489Z,95408.75
2022-09-04T16:55:08.724Z,95410.63
2022-09-04T16:58:02.670Z,95408.16
2022-09-04T17:00:51.631Z,95412.09
2022-09-04T17:03:24.182Z,95419.19
2022-09-04T17:06:14.614Z,95425.06
2022-09-04T17:08:47.995Z,95421.66
2022-09-04T17:11:22.607Z,95428.94
2022-09-04T17:13:58.517Z,95419.75
2022-09-04T17:16:38.140Z,95434.03
2022-09-04T17:19:05.036Z,95448.56
2022-09-04T17:29:02.392Z,95449.91
2022-09-04T17:29:04.607Z,95453.94
2022-09-04T17:29:16.662Z,95454.72
2022-09-04T17:30:55.916Z,95446.81
2022-09-04T17:40:43.087Z,95454.72
2022-09-04T17:40:48.836Z,95461.09
2022-09-04T17:41:33.311Z,95463.75
2022-09-04T17:42:19.896Z,95467.44
2022-09-04T17:44:55.396Z,95469.56
2022-09-04T17:47:41.750Z,95477.22
2022-09-04T17:50:16.550Z,95490.19
2022-09-04T17:53:02.354Z,95489.72
2022-09-04T17:55:34.924Z,95493.44
2022-09-04T17:58:15.428Z,95485.28
2022-09-04T18:01:14.945Z,95494.81
2022-09-04T18:04:21.818Z,95498.84
2022-09-04T18:07:57.766Z,95497.81
2022-09-04T18:10:32.564Z,95499.47
2022-09-04T18:13:36.952Z,95493.72
2022-09-04T18:17:11.139Z,95501.09
2022-09-04T18:19:36.963Z,95507.41
2022-09-04T18:22:26.855Z,95508.72
2022-09-04T18:25:17.323Z,95528.00
2022-09-04T18:28:12.527Z,95523.25
2022-09-04T18:37:06.586Z,95521.66
2022-09-04T18:37:12.713Z,95524.09
2022-09-04T18:37:44.508Z,95524.88
2022-09-04T18:40:15.582Z,95520.69
2022-09-04T18:49:57.482Z,95522.75
2022-09-04T18:50:31.401Z,95525.38
2022-09-04T18:50:38.512Z,95525.13
2022-09-04T18:51:31.409Z,95525.38
2022-09-04T18:54:08.469Z,95518.47
2022-09-04T18:56:48.249Z,95505.59
2022-09-04T18:59:21.006Z,95512.44
2022-09-04T19:01:58.523Z,95505.28
2022-09-04T19:04:51.938Z,95511.03
2022-09-04T19:07:56.920Z,95513.16
2022-09-04T19:10:31.820Z,95516.88
2022-09-04T19:13:04.448Z,95514.78
2022-09-04T19:15:49.830Z,95517.44
2022-09-04T19:18:16.566Z,95516.91
2022-09-04T19:20:48.704Z,95514.28
2022-09-04T19:23:32.614Z,95509.53
2022-09-04T19:26:07.559Z,95515.34
2022-09-04T19:28:52.471Z,95516.16
2022-09-04T19:31:42.933Z,95518.28
2022-09-04T19:34:28.854Z,95517.47
2022-09-04T19:37:13.549Z,95518.56
2022-09-04T19:46:01.784Z,95515.66
2022-09-04T19:46:11.720Z,95516.19
2022-09-04T19:51:09.374Z,95518.84
2022-09-04T19:53:31.420Z,95510.66
2022-09-04T19:55:25.742Z,95521.72
2022-09-04T19:58:11.997Z,95529.13
2022-09-04T20:00:55.009Z,95527.03
2022-09-04T20:03:35.637Z,95532.84
2022-09-04T20:06:20.893Z,95532.59
2022-09-04T20:08:59.269Z,95528.63
2022-09-04T20:11:36.046Z,95528.63
2022-09-04T20:14:14.496Z,95528.63
2022-09-04T20:16:52.657Z,95521.78
2022-09-04T20:19:38.791Z,95533.91
2022-09-04T20:22:24.047Z,95530.75
2022-09-04T20:25:01.175Z,95536.28
2022-09-04T20:27:41.626Z,95533.91
2022-09-04T20:30:12.732Z,95544.47
2022-09-04T20:33:01.812Z,95537.59
2022-09-04T20:35:39.423Z,95540.22
2022-09-04T20:38:30.585Z,95529.69
2022-09-04T20:41:12.293Z,95536.03
2022-09-04T20:43:58.992Z,95538.13
2022-09-04T20:52:40.284Z,95514.38
2022-09-04T20:52:54.739Z,95538.66
2022-09-04T20:53:39.846Z,95537.59
2022-09-04T21:00:28.273Z,95544.19
2022-09-04T21:03:07.789Z,95545.78
2022-09-04T21:03:23.561Z,95544.19
2022-09-04T21:06:12.232Z,95524.44
2022-09-04T21:09:14.591Z,95526.50
2022-09-04T21:11:47.323Z,95531.00
2022-09-04T21:14:17.118Z,95520.44
2022-09-04T21:16:57.972Z,95520.72
2022-09-04T21:19:45.647Z,95514.41
2022-09-04T21:22:33.543Z,95511.22
2022-09-04T21:25:31.380Z,95520.19
2022-09-04T21:28:21.845Z,95522.81
2022-09-04T21:30:48.562Z,95528.91
2022-09-04T21:33:45.883Z,95522.81
2022-09-04T21:36:30.777Z,95516.50
2022-09-04T21:39:03.625Z,95528.63
2022-09-04T21:42:01.729Z,95530.22
2022-09-04T21:44:58.559Z,95532.84
2022-09-04T21:47:46.463Z,95534.44
2022-09-04T21:50:22.988Z,95538.13
2022-09-04T21:53:10.014Z,95542.34
2022-09-04T21:58:19.868Z,95539.19
2022-09-04T22:02:36.659Z,95536.81
2022-09-04T22:02:39.684Z,95544.97
2022-09-04T22:05:21.704Z,95544.97
2022-09-04T22:13:26.542Z,95560.56
2022-09-04T22:13:41.543Z,95565.03
2022-09-04T22:13:50.855Z,95556.59
2022-09-04T22:16:30.374Z,95559.22
2022-09-04T22:19:22.015Z,95556.56
2022-09-04T22:22:27.440Z,95553.94
2022-09-04T22:25:45.625Z,95555.25
2022-09-04T22:28:34.188Z,95551.28
2022-09-04T22:31:24.321Z,95547.06
2022-09-04T22:34:16.464Z,95546.56
2022-09-04T22:37:05.904Z,95557.13
2022-09-04T22:39:35.285Z,95551.84
2022-09-04T22:42:26.988Z,95550.25
2022-09-04T22:45:22.728Z,95545.00
2022-09-04T22:48:37.326Z,95552.38
2022-09-04T22:51:25.615Z,95545.00
2022-09-04T22:54:11.055Z,95558.69
2022-09-04T22:57:00.841Z,95557.66
2022-09-04T22:59:52.273Z,95561.09
2022-09-04T23:06:16.192Z,95562.94
2022-09-04T23:13:50.371Z,95573.72
2022-09-04T23:13:50.839Z,95560.28
2022-09-04T23:15:39.443Z,95568.97
2022-09-04T23:20:42.435Z,95567.63
2022-09-04T23:26:32.922Z,95564.22
2022-09-04T23:26:41.690Z,95565.53
2022-09-04T23:27:29.056Z,95562.34
2022-09-04T23:30:25.801Z,95568.16
2022-09-04T23:33:27.559Z,95555.50
2022-09-04T23:36:22.043Z,95578.69
2022-09-04T23:39:15.419Z,95576.63
2022-09-04T23:41:53.153Z,95578.69
2022-09-04T23:44:38.806Z,95575.03
2022-09-04T23:47:20.350Z,95579.25
2022-09-04T23:50:06.153Z,95571.63
2022-09-04T23:52:59.894Z,95571.34
2022-09-04T23:55:49.440Z,95570.03
2022-09-04T23:58:54.372Z,95562.63
